Time;durP1;ratioP1;P1;durP2;ratioP2;P2;SDS_P1;SDS_P2;PMS_P1;PMS_P2;Temp;Humidity;BMP_temperature;BMP_pressure;BME280_temperature;BME280_humidity;BME280_pressure;Samples;Min_cycle;Max_cycle;Signal;HPM_P1;HPM_P2
2023/09/11 00:01:48;;;;;;;12.30;10.90;;;;;;;15.51;100.00;99175.17;270724;1270;22562;-86
2023/09/11 00:08:12;;;;;;;13.30;10.70;;;;;;;15.44;100.00;99170.55;271864;1268;23200;-86
2023/09/11 00:14:16;;;;;;;14.50;10.70;;;;;;;15.32;100.00;99169.73;272010;1270;22853;-86
2023/09/11 00:20:31;;;;;;;15.00;12.40;;;;;;;15.20;100.00;99171.05;273203;1270;22302;-86
2023/09/11 00:26:33;;;;;;;15.00;11.80;;;;;;;15.15;100.00;99166.82;273250;1270;22358;-87
2023/09/11 00:32:50;;;;;;;13.60;10.80;;;;;;;15.05;100.00;99163.00;272733;1270;22347;-86
2023/09/11 00:38:52;;;;;;;17.90;12.30;;;;;;;14.98;100.00;99157.44;271531;1271;22712;-87
2023/09/11 00:44:54;;;;;;;18.00;12.50;;;;;;;14.94;100.00;99157.38;271594;1270;22207;-87
2023/09/11 00:51:05;;;;;;;17.40;14.10;;;;;;;14.86;100.00;99157.33;273036;1270;23090;-87
2023/09/11 00:57:09;;;;;;;19.00;13.00;;;;;;;14.82;100.00;99151.91;273151;1270;23148;-87
2023/09/11 01:03:12;;;;;;;15.40;11.20;;;;;;;14.76;100.00;99147.04;273213;1271;23302;-87
2023/09/11 01:09:15;;;;;;;16.80;11.70;;;;;;;14.67;100.00;99143.45;273402;1272;22268;-87
2023/09/11 01:15:18;;;;;;;18.20;13.00;;;;;;;14.65;100.00;99137.80;273018;1270;23380;-87
2023/09/11 01:21:37;;;;;;;14.90;11.40;;;;;;;14.63;100.00;99134.41;272459;1270;22372;-87
2023/09/11 01:27:56;;;;;;;14.50;11.60;;;;;;;14.57;100.00;99135.52;270068;1269;22212;-86
2023/09/11 01:34:25;;;;;;;17.20;11.20;;;;;;;14.46;100.00;99134.14;272798;1269;22195;-87
2023/09/11 01:40:38;;;;;;;16.00;12.50;;;;;;;14.36;100.00;99128.02;273312;1272;22185;-87
2023/09/11 01:47:00;;;;;;;15.20;11.20;;;;;;;14.27;100.00;99123.77;273188;1275;22207;-87
2023/09/11 01:53:12;;;;;;;15.40;12.20;;;;;;;14.23;100.00;99123.37;273155;1272;22307;-87
2023/09/11 01:59:14;;;;;;;14.30;12.40;;;;;;;14.27;100.00;99117.42;272902;1271;22362;-87
2023/09/11 02:05:19;;;;;;;14.00;10.70;;;;;;;14.21;100.00;99120.00;272908;1267;22366;-86
2023/09/11 02:11:22;;;;;;;15.60;12.30;;;;;;;14.17;100.00;99117.10;272820;1270;22437;-87
2023/09/11 02:17:23;;;;;;;15.90;11.70;;;;;;;14.16;100.00;99116.62;273280;1272;23209;-86
2023/09/11 02:23:25;;;;;;;15.60;12.40;;;;;;;14.10;100.00;99119.60;272754;1272;22962;-87
2023/09/11 02:29:27;;;;;;;15.80;11.80;;;;;;;14.03;100.00;99116.48;273058;1272;22334;-87
2023/09/11 02:35:31;;;;;;;15.60;11.50;;;;;;;13.98;100.00;99114.13;272858;1271;22347;-87
2023/09/11 02:41:33;;;;;;;14.40;11.20;;;;;;;13.91;100.00;99116.58;273165;1273;23368;-86
2023/09/11 02:47:35;;;;;;;17.00;12.30;;;;;;;13.82;100.00;99114.84;272694;1271;22401;-87
2023/09/11 02:53:36;;;;;;;17.10;12.50;;;;;;;13.80;100.00;99112.08;272893;1271;22274;-87
2023/09/11 02:59:38;;;;;;;15.30;11.50;;;;;;;13.72;100.00;99115.15;272900;1270;22333;-87
2023/09/11 03:06:14;;;;;;;15.30;12.30;;;;;;;13.59;100.00;99116.08;272898;1268;23640;-87
2023/09/11 03:12:16;;;;;;;14.30;11.80;;;;;;;13.58;100.00;99115.05;272369;1270;23850;-88
2023/09/11 03:18:18;;;;;;;16.60;11.60;;;;;;;13.52;100.00;99114.90;271920;1271;23238;-87
2023/09/11 03:24:34;;;;;;;14.90;11.60;;;;;;;13.44;100.00;99113.71;271281;1269;24086;-86
2023/09/11 03:30:37;;;;;;;12.60;9.80;;;;;;;13.44;100.00;99118.42;272087;1270;22372;-86
2023/09/11 03:36:40;;;;;;;13.20;10.90;;;;;;;13.41;100.00;99121.48;273503;1272;23397;-86
2023/09/11 03:42:42;;;;;;;13.30;11.10;;;;;;;13.36;100.00;99115.90;273187;1275;22837;-86
2023/09/11 03:48:51;;;;;;;14.10;11.10;;;;;;;13.30;100.00;99118.70;273059;1270;23532;-86
2023/09/11 03:55:10;;;;;;;14.00;10.40;;;;;;;13.26;100.00;99115.23;273094;1272;22169;-86
2023/09/11 04:01:52;;;;;;;11.40;10.20;;;;;;;13.26;100.00;99109.50;272947;1271;22317;-86
2023/09/11 04:07:54;;;;;;;15.30;10.60;;;;;;;13.26;100.00;99105.11;272875;1272;22405;-86
2023/09/11 04:14:00;;;;;;;15.10;10.00;;;;;;;13.25;100.00;99096.94;272982;1271;23654;-85
2023/09/11 04:20:03;;;;;;;15.00;9.80;;;;;;;13.17;100.00;99093.86;271258;1272;22280;-86
2023/09/11 04:26:08;;;;;;;13.00;10.60;;;;;;;13.11;100.00;99097.08;272038;1272;23372;-86
2023/09/11 04:32:12;;;;;;;15.60;11.80;;;;;;;13.10;100.00;99094.00;269984;1272;22568;-86
2023/09/11 04:38:14;;;;;;;14.90;10.90;;;;;;;13.10;100.00;99091.88;269543;1271;22530;-85
2023/09/11 04:44:16;;;;;;;14.90;11.20;;;;;;;13.07;100.00;99097.05;270844;1271;22994;-86
2023/09/11 04:50:18;;;;;;;13.50;11.50;;;;;;;13.03;100.00;99086.13;273039;1277;22401;-86
2023/09/11 04:56:24;;;;;;;14.30;12.00;;;;;;;13.05;100.00;99084.09;273068;1271;22464;-85
2023/09/11 05:02:28;;;;;;;15.70;10.50;;;;;;;13.14;100.00;99085.05;272163;1270;22617;-85
2023/09/11 05:08:43;;;;;;;15.50;10.90;;;;;;;13.25;100.00;99084.14;269927;1270;25795;-86
2023/09/11 05:14:54;;;;;;;16.20;12.50;;;;;;;13.44;100.00;99084.33;270831;1272;22572;-86
2023/09/11 05:20:56;;;;;;;19.20;13.10;;;;;;;13.59;100.00;99084.73;271043;1272;22997;-86
2023/09/11 05:26:59;;;;;;;15.00;11.70;;;;;;;13.78;100.00;99081.66;272838;1273;22307;-85
2023/09/11 05:33:01;;;;;;;19.20;13.20;;;;;;;14.02;100.00;99077.15;273035;1272;23488;-85
2023/09/11 05:39:07;;;;;;;17.30;14.10;;;;;;;14.50;100.00;99074.15;270482;1272;22566;-85
2023/09/11 05:45:09;;;;;;;20.30;13.60;;;;;;;15.04;100.00;99079.51;269467;1272;22242;-86
2023/09/11 05:51:15;;;;;;;18.20;12.60;;;;;;;15.57;100.00;99081.48;269301;1272;22214;-86
2023/09/11 05:57:17;;;;;;;16.30;12.60;;;;;;;15.99;100.00;99079.47;272915;1271;22242;-86
2023/09/11 06:03:19;;;;;;;14.60;10.90;;;;;;;16.27;100.00;99071.45;272776;1263;23335;-86
2023/09/11 06:09:26;;;;;;;13.60;11.60;;;;;;;16.50;100.00;99070.52;270038;1270;22511;-86
2023/09/11 06:15:29;;;;;;;12.60;10.90;;;;;;;16.76;100.00;99067.84;272420;1272;22182;-87
2023/09/11 06:21:56;;;;;;;13.00;10.20;;;;;;;17.20;100.00;99063.78;271881;1271;22531;-87
2023/09/11 06:27:58;;;;;;;11.60;10.00;;;;;;;17.53;100.00;99065.13;271290;1272;22317;-87
2023/09/11 06:34:13;;;;;;;20.40;10.30;;;;;;;17.73;100.00;99066.30;272651;1272;22530;-87
2023/09/11 06:40:15;;;;;;;12.70;9.80;;;;;;;17.88;100.00;99067.16;271180;1272;22553;-87
2023/09/11 06:46:20;;;;;;;11.70;8.70;;;;;;;18.05;100.00;99070.74;269484;1271;23807;-87
2023/09/11 06:52:22;;;;;;;13.40;9.60;;;;;;;18.23;100.00;99071.36;269391;1272;22598;-87
2023/09/11 06:59:06;;;;;;;11.30;9.00;;;;;;;18.43;100.00;99063.81;271031;1271;23014;-87
2023/09/11 07:05:08;;;;;;;11.20;9.10;;;;;;;18.63;100.00;99063.08;273184;1269;23458;-87
2023/09/11 07:11:10;;;;;;;10.40;8.70;;;;;;;18.87;100.00;99064.52;273083;1270;22431;-87
2023/09/11 07:17:13;;;;;;;12.50;9.80;;;;;;;19.11;100.00;99060.87;273161;1271;22201;-87
2023/09/11 07:23:29;;;;;;;12.70;9.40;;;;;;;19.38;100.00;99063.46;272711;1272;22294;-87
2023/09/11 07:29:32;;;;;;;11.20;8.30;;;;;;;19.64;100.00;99061.96;273266;1272;22230;-87
2023/09/11 07:35:33;;;;;;;12.60;8.40;;;;;;;19.94;100.00;99059.71;273193;1265;22303;-87
2023/09/11 07:41:35;;;;;;;10.20;7.30;;;;;;;20.22;100.00;99058.44;273256;1272;22286;-88
2023/09/11 07:47:37;;;;;;;8.70;7.00;;;;;;;20.51;100.00;99053.85;273138;1270;22226;-87
2023/09/11 07:53:40;;;;;;;9.20;7.40;;;;;;;20.96;100.00;99048.80;273164;1272;23604;-87
2023/09/11 07:59:44;;;;;;;11.40;7.20;;;;;;;21.43;100.00;99048.07;273096;1272;22192;-88
2023/09/11 08:05:53;;;;;;;;;;;;;;;21.85;100.00;99047.22;273242;1272;22497;-88
2023/09/11 08:11:54;;;;;;;10.70;8.00;;;;;;;22.26;100.00;99052.33;273149;1274;22264;-87
2023/09/11 08:17:59;;;;;;;11.40;8.70;;;;;;;22.61;100.00;99049.76;273241;1270;22214;-87
2023/09/11 08:24:01;;;;;;;12.20;8.50;;;;;;;22.87;100.00;99039.86;273246;1275;22243;-86
2023/09/11 08:30:07;;;;;;;15.80;9.70;;;;;;;23.07;100.00;99037.71;273085;1270;22419;-85
2023/09/11 08:36:09;;;;;;;14.70;9.40;;;;;;;23.32;100.00;99034.69;272888;1272;22177;-85
2023/09/11 08:42:11;;;;;;;18.30;9.80;;;;;;;23.59;100.00;99034.45;273028;1271;22183;-85
2023/09/11 08:48:14;;;;;;;16.60;10.00;;;;;;;23.89;100.00;99036.65;273005;1272;23075;-84
2023/09/11 08:54:18;;;;;;;17.50;10.00;;;;;;;24.13;100.00;99039.10;273184;1270;22735;-85
2023/09/11 09:00:27;;;;;;;20.40;10.30;;;;;;;24.42;99.30;99042.29;273196;1270;22423;-85
2023/09/11 09:06:29;;;;;;;14.40;9.20;;;;;;;24.98;98.78;99044.09;273093;1273;22304;-86
2023/09/11 09:12:31;;;;;;;15.50;8.20;;;;;;;25.91;96.50;99038.86;273020;1272;22888;-85
2023/09/11 09:18:33;;;;;;;12.50;7.90;;;;;;;26.96;93.38;99036.02;271108;1271;22557;-88
2023/09/11 09:24:46;;;;;;;11.10;5.30;;;;;;;27.70;89.48;99036.19;270960;1271;22567;-88
2023/09/11 09:30:55;;;;;;;7.40;4.90;;;;;;;28.48;87.17;99033.15;270390;1272;22560;-88
2023/09/11 09:36:57;;;;;;;7.80;4.90;;;;;;;29.17;82.88;99035.52;269691;1272;22586;-88
2023/09/11 09:42:59;;;;;;;9.50;4.40;;;;;;;29.94;79.87;99031.31;271416;1272;22190;-86
2023/09/11 09:49:01;;;;;;;6.50;4.40;;;;;;;30.65;77.00;99018.98;273138;1270;22314;-86
2023/09/11 09:55:03;;;;;;;8.90;4.10;;;;;;;31.36;73.63;99010.48;272487;1270;22356;-86
2023/09/11 10:01:06;;;;;;;8.10;4.30;;;;;;;31.47;70.19;99003.73;271744;1264;22983;-86
2023/09/11 10:07:07;;;;;;;4.80;4.40;;;;;;;31.83;67.63;98995.17;270659;1270;24043;-87
2023/09/11 10:13:12;;;;;;;10.20;5.20;;;;;;;32.24;63.90;98991.13;271069;1273;22528;-88
2023/09/11 10:19:16;;;;;;;7.50;4.20;;;;;;;32.33;63.13;98986.44;272963;1271;22187;-87
2023/09/11 10:25:19;;;;;;;4.90;4.20;;;;;;;32.72;61.71;98984.48;273106;1270;22181;-88
2023/09/11 10:31:23;;;;;;;5.10;4.60;;;;;;;33.04;59.81;98977.65;273128;1270;22989;-89
2023/09/11 10:37:26;;;;;;;5.80;4.50;;;;;;;33.29;57.91;98977.39;271446;1270;22329;-88
2023/09/11 10:43:28;;;;;;;6.50;4.50;;;;;;;33.28;56.63;98975.29;272408;1270;22509;-88
2023/09/11 10:49:34;;;;;;;9.60;4.50;;;;;;;32.96;55.78;98968.20;269616;1271;22576;-88
2023/09/11 10:55:36;;;;;;;4.70;4.20;;;;;;;33.01;54.92;98964.24;270174;1267;22324;-88
2023/09/11 11:01:38;;;;;;;7.50;5.00;;;;;;;33.04;53.81;98957.05;270370;1270;22572;-87
2023/09/11 11:07:39;;;;;;;9.50;4.30;;;;;;;32.86;53.87;98960.08;271017;1270;22187;-88
2023/09/11 11:14:15;;;;;;;9.80;5.90;;;;;;;32.54;53.28;98955.85;273002;1270;22122;-88
2023/09/11 11:20:17;;;;;;;5.50;4.50;;;;;;;32.11;53.26;98951.77;272821;1270;115373;-88
2023/09/11 11:26:19;;;;;;;5.10;4.30;;;;;;;31.63;52.95;98953.08;273058;1270;22307;-88
2023/09/11 11:32:21;;;;;;;5.90;5.20;;;;;;;31.45;53.81;98953.12;271966;1270;22355;-88
2023/09/11 11:38:26;;;;;;;6.50;4.70;;;;;;;31.02;53.07;98948.87;273157;1270;23260;-88
2023/09/11 11:44:33;;;;;;;6.30;4.70;;;;;;;30.50;52.86;98941.47;273131;1270;22447;-88
2023/09/11 11:50:34;;;;;;;8.90;5.40;;;;;;;30.06;53.09;98940.60;272347;1270;24202;-87
2023/09/11 11:56:37;;;;;;;7.30;5.30;;;;;;;29.69;53.18;98937.98;270102;1270;22209;-88
2023/09/11 12:02:42;;;;;;;5.80;5.30;;;;;;;29.27;53.74;98934.13;270494;1268;23943;-88
2023/09/11 12:08:44;;;;;;;7.00;5.70;;;;;;;29.03;54.46;98934.35;270218;1270;22536;-87
2023/09/11 12:14:46;;;;;;;7.70;5.10;;;;;;;28.67;53.85;98923.95;272065;1270;22401;-87
2023/09/11 12:20:59;;;;;;;8.40;5.10;;;;;;;28.49;54.22;98919.38;273075;1270;22872;-88
2023/09/11 12:27:01;;;;;;;6.10;4.80;;;;;;;28.37;55.42;98917.23;273092;1270;22322;-88
2023/09/11 12:33:09;;;;;;;7.30;4.90;;;;;;;28.16;56.30;98917.23;272868;1270;22331;-88
2023/09/11 12:39:11;;;;;;;11.90;5.80;;;;;;;28.09;55.95;98915.75;271173;1270;23616;-87
2023/09/11 12:45:14;;;;;;;7.30;5.70;;;;;;;28.05;56.76;98914.48;271844;1270;22555;-88
2023/09/11 12:51:16;;;;;;;10.80;6.50;;;;;;;27.95;56.24;98912.29;270499;1270;22565;-88
2023/09/11 12:57:18;;;;;;;7.00;5.30;;;;;;;27.79;56.28;98910.06;271948;1270;22449;-87
2023/09/11 13:03:21;;;;;;;10.70;5.80;;;;;;;27.56;56.00;98900.73;272809;1270;22302;-87
2023/09/11 13:09:24;;;;;;;10.50;5.70;;;;;;;27.44;55.73;98892.23;272922;1270;22332;-88
2023/09/11 13:15:25;;;;;;;6.20;5.40;;;;;;;27.40;56.10;98885.89;272584;1269;23929;-86
2023/09/11 13:21:27;;;;;;;8.10;5.90;;;;;;;27.31;56.86;98885.30;269664;1270;25317;-88
2023/09/11 13:27:30;;;;;;;8.40;6.20;;;;;;;27.12;57.07;98884.30;272045;1270;22323;-88
2023/09/11 13:33:32;;;;;;;6.50;5.80;;;;;;;27.04;56.95;98883.46;273047;1270;22217;-88
2023/09/11 13:39:34;;;;;;;10.10;5.40;;;;;;;26.94;57.59;98884.13;273074;1270;22471;-88
2023/09/11 13:45:35;;;;;;;9.30;5.30;;;;;;;26.87;57.82;98877.59;272857;1270;22528;-86
2023/09/11 13:51:37;;;;;;;8.60;6.00;;;;;;;26.76;57.84;98875.68;270500;1270;24094;-88
2023/09/11 13:57:39;;;;;;;6.40;5.80;;;;;;;26.70;58.49;98869.36;269447;1270;22513;-87
2023/09/11 14:03:43;;;;;;;9.10;5.80;;;;;;;26.63;59.14;98866.23;269907;1270;22770;-89
2023/09/11 14:09:45;;;;;;;8.00;5.70;;;;;;;26.57;58.92;98855.29;270177;1270;23579;-88
2023/09/11 14:15:47;;;;;;;7.20;5.30;;;;;;;26.51;59.23;98847.77;273096;1270;23442;-88
2023/09/11 14:21:49;;;;;;;6.90;5.60;;;;;;;26.49;60.07;98843.41;271398;1270;22560;-89
2023/09/11 14:27:51;;;;;;;11.40;5.90;;;;;;;26.46;60.25;98844.79;270371;1270;22569;-89
2023/09/11 14:33:53;;;;;;;7.50;5.80;;;;;;;26.39;60.50;98842.64;269781;1270;23285;-89
2023/09/11 14:39:55;;;;;;;8.70;5.10;;;;;;;26.24;60.40;98841.36;270174;1270;23751;-88
2023/09/11 14:45:56;;;;;;;9.20;5.20;;;;;;;26.17;60.67;98834.30;269844;1270;23916;-88
2023/09/11 14:51:58;;;;;;;9.30;6.20;;;;;;;26.09;60.99;98827.83;269564;1271;25239;-89
2023/09/11 14:58:00;;;;;;;6.40;5.40;;;;;;;26.00;61.27;98831.05;270471;1270;22247;-89
2023/09/11 15:04:02;;;;;;;6.00;5.20;;;;;;;25.91;61.17;98826.27;272982;1270;22137;-90
2023/09/11 15:10:04;;;;;;;7.30;5.80;;;;;;;25.83;61.37;98819.52;271025;1270;23653;-88
2023/09/11 15:16:06;;;;;;;9.90;6.30;;;;;;;25.78;61.87;98816.46;270113;1270;22565;-88
2023/09/11 15:22:08;;;;;;;7.20;6.10;;;;;;;25.72;62.24;98816.14;269645;1270;24486;-90
2023/09/11 15:28:10;;;;;;;6.60;5.80;;;;;;;25.66;62.89;98818.78;269824;1270;23526;-89
2023/09/11 15:34:13;;;;;;;6.90;5.50;;;;;;;25.60;63.33;98816.80;269710;1270;22553;-90
2023/09/11 15:40:15;;;;;;;7.70;6.20;;;;;;;25.54;63.51;98818.96;270461;1270;23671;-89
2023/09/11 15:46:17;;;;;;;6.50;5.20;;;;;;;25.46;63.66;98821.44;271809;1268;22397;-88
2023/09/11 15:52:19;;;;;;;6.90;5.70;;;;;;;25.35;64.11;98818.81;273002;1269;22221;-89
2023/09/11 15:58:21;;;;;;;7.20;6.30;;;;;;;25.30;64.24;98814.98;273016;1270;23071;-88
2023/09/11 16:04:23;;;;;;;7.10;6.20;;;;;;;25.30;64.64;98814.86;273211;1270;22311;-89
2023/09/11 16:10:25;;;;;;;10.50;6.20;;;;;;;25.22;65.25;98813.98;273239;1262;22223;-89
2023/09/11 16:16:27;;;;;;;7.10;5.70;;;;;;;25.13;65.14;98810.37;273013;1270;22185;-89
2023/09/11 16:22:28;;;;;;;9.00;6.70;;;;;;;25.05;66.79;98813.11;273038;1270;22183;-89
2023/09/11 16:28:30;;;;;;;20.00;8.60;;;;;;;24.95;68.69;98810.70;272969;1270;25131;-90
2023/09/11 16:34:31;;;;;;;16.30;9.30;;;;;;;24.80;69.90;98807.05;273208;1270;22911;-89
2023/09/11 16:40:34;;;;;;;21.10;8.20;;;;;;;24.60;70.98;98806.41;265316;1270;10001811;-89
2023/09/11 16:46:35;;;;;;;21.60;9.60;;;;;;;24.37;72.50;98808.93;272651;1270;22447;-89
2023/09/11 16:52:39;;;;;;;12.60;8.60;;;;;;;24.17;74.01;98809.59;272844;1270;22392;-88
2023/09/11 16:58:41;;;;;;;18.40;8.80;;;;;;;23.99;75.10;98810.11;272507;1270;22400;-88
2023/09/11 17:04:43;;;;;;;12.90;9.40;;;;;;;23.81;76.14;98808.92;272851;1270;23198;-89
2023/09/11 17:10:44;;;;;;;16.70;10.80;;;;;;;23.61;76.65;98813.50;272804;1270;22214;-89
2023/09/11 17:16:46;;;;;;;16.10;11.50;;;;;;;23.41;77.64;98811.57;272952;1270;23085;-89
2023/09/11 17:22:48;;;;;;;17.70;11.00;;;;;;;23.25;78.69;98815.36;272714;1270;22416;-88
2023/09/11 17:28:50;;;;;;;21.10;14.80;;;;;;;23.04;79.48;98817.46;272801;1270;23135;-88
2023/09/11 17:34:52;;;;;;;30.80;19.80;;;;;;;22.83;80.53;98816.89;272698;1270;23793;-89
2023/09/11 17:40:54;;;;;;;31.60;19.80;;;;;;;22.62;81.57;98817.52;272672;1263;22411;-87
2023/09/11 17:47:03;;;;;;;31.70;19.20;;;;;;;22.47;82.24;98823.18;272748;1270;22315;-89
2023/09/11 17:53:05;;;;;;;38.20;24.40;;;;;;;22.35;83.17;98822.80;271480;1270;22207;-89
2023/09/11 17:59:06;;;;;;;44.30;25.80;;;;;;;22.21;83.87;98822.36;271875;1270;22289;-89
2023/09/11 18:05:08;;;;;;;28.70;18.70;;;;;;;22.06;84.58;98824.77;272717;1270;22398;-89
2023/09/11 18:11:13;;;;;;;31.60;18.20;;;;;;;21.83;86.00;98825.57;272824;1271;22360;-87
2023/09/11 18:17:15;;;;;;;25.70;16.10;;;;;;;21.59;87.20;98826.02;272770;1270;22242;-88
2023/09/11 18:23:17;;;;;;;24.90;16.50;;;;;;;21.44;88.56;98832.02;273012;1270;22340;-88
2023/09/11 18:29:19;;;;;;;20.90;14.40;;;;;;;21.33;89.72;98840.21;273024;1270;22285;-89
2023/09/11 18:35:21;;;;;;;57.10;35.50;;;;;;;21.19;89.97;98840.80;272943;1270;23247;-88
2023/09/11 18:41:25;;;;;;;46.20;31.70;;;;;;;21.05;90.31;98844.66;272731;1270;22517;-89
2023/09/11 18:47:28;;;;;;;51.40;33.40;;;;;;;20.92;90.92;98846.77;271353;1265;22417;-88
2023/09/11 18:53:32;;;;;;;43.30;27.60;;;;;;;20.77;91.52;98850.05;271962;1270;22580;-89
2023/09/11 18:59:34;;;;;;;39.70;29.30;;;;;;;20.61;92.33;98851.81;270810;1271;22550;-88
2023/09/11 19:05:37;;;;;;;39.10;27.50;;;;;;;20.48;93.29;98850.88;271682;1271;22398;-89
2023/09/11 19:11:41;;;;;;;48.70;32.60;;;;;;;20.40;93.97;98847.30;272100;1270;22327;-89
2023/09/11 19:17:44;;;;;;;39.60;26.40;;;;;;;20.32;94.45;98848.18;272696;1271;22328;-89
2023/09/11 19:23:48;;;;;;;46.00;31.10;;;;;;;20.16;94.80;98849.47;272821;1270;22424;-89
2023/09/11 19:29:50;;;;;;;45.30;30.10;;;;;;;20.04;95.82;98849.24;272603;1269;22217;-88
2023/09/11 19:35:52;;;;;;;44.20;30.00;;;;;;;19.97;96.67;98855.23;272760;1270;22461;-88
2023/09/11 19:41:54;;;;;;;37.60;26.30;;;;;;;19.91;97.15;98855.17;272859;1271;22410;-88
2023/09/11 19:47:55;;;;;;;38.40;26.90;;;;;;;19.78;97.41;98851.19;272843;1270;22195;-88
2023/09/11 19:53:57;;;;;;;45.30;31.40;;;;;;;19.61;97.86;98848.64;272816;1271;22351;-89
2023/09/11 19:59:59;;;;;;;53.10;35.40;;;;;;;19.50;98.84;98849.58;272821;1270;23421;-89
2023/09/11 20:06:01;;;;;;;56.00;35.80;;;;;;;19.43;99.46;98848.75;272775;1270;22221;-89
2023/09/11 20:12:06;;;;;;;55.90;36.00;;;;;;;19.35;99.93;98850.53;272978;1272;22592;-89
2023/09/11 20:18:08;;;;;;;45.40;31.70;;;;;;;19.24;99.99;98848.65;272780;1272;22388;-89
2023/09/11 20:24:10;;;;;;;41.30;29.20;;;;;;;19.18;100.00;98850.56;272946;1269;22205;-89
2023/09/11 20:30:13;;;;;;;40.40;29.80;;;;;;;19.06;100.00;98853.55;273126;1270;22380;-89
2023/09/11 20:36:16;;;;;;;43.20;27.70;;;;;;;18.97;100.00;98854.27;272998;1270;22376;-89
2023/09/11 20:42:18;;;;;;;37.60;28.10;;;;;;;18.87;100.00;98853.47;273002;1270;22343;-89
2023/09/11 20:48:20;;;;;;;40.10;26.10;;;;;;;18.76;100.00;98854.14;272866;1271;23564;-89
2023/09/11 20:54:21;;;;;;;32.30;24.10;;;;;;;18.60;100.00;98855.37;272939;1270;22342;-88
2023/09/11 21:00:23;;;;;;;32.80;23.90;;;;;;;18.52;100.00;98855.20;272894;1271;22351;-89
2023/09/11 21:06:25;;;;;;;41.80;28.10;;;;;;;18.53;100.00;98861.34;273000;1271;22349;-89
2023/09/11 21:12:27;;;;;;;42.10;29.40;;;;;;;18.51;100.00;98857.27;273037;1270;23498;-89
2023/09/11 21:18:29;;;;;;;49.30;31.90;;;;;;;18.46;100.00;98857.20;272883;1272;22263;-89
2023/09/11 21:24:31;;;;;;;35.00;25.40;;;;;;;18.38;100.00;98856.36;272759;1270;22310;-87
2023/09/11 21:30:33;;;;;;;34.60;26.20;;;;;;;18.33;100.00;98857.88;273076;1272;22367;-89
2023/09/11 21:36:35;;;;;;;51.10;32.10;;;;;;;18.26;100.00;98851.46;272936;1269;24039;-88
2023/09/11 21:42:37;;;;;;;45.70;31.70;;;;;;;18.20;100.00;98849.38;273029;1270;22240;-88
2023/09/11 21:48:39;;;;;;;57.40;33.10;;;;;;;18.20;100.00;98847.40;271726;1271;22563;-89
2023/09/11 21:54:41;;;;;;;38.70;27.60;;;;;;;18.15;100.00;98845.14;270054;1270;23064;-89
2023/09/11 22:00:42;;;;;;;47.60;27.60;;;;;;;18.03;100.00;98840.25;272922;1272;22344;-88
2023/09/11 22:06:44;;;;;;;47.40;29.70;;;;;;;17.97;100.00;98839.98;273025;1271;23496;-89
2023/09/11 22:12:46;;;;;;;40.60;29.00;;;;;;;17.99;100.00;98838.51;273056;1271;23627;-89
2023/09/11 22:18:47;;;;;;;41.50;30.20;;;;;;;17.98;100.00;98838.38;272998;1271;22341;-89
2023/09/11 22:24:49;;;;;;;43.30;27.30;;;;;;;17.94;100.00;98841.31;272981;1271;23058;-89
2023/09/11 22:30:51;;;;;;;46.10;29.80;;;;;;;17.90;100.00;98840.84;273037;1270;22677;-89
2023/09/11 22:36:53;;;;;;;38.50;26.00;;;;;;;17.81;100.00;98838.19;273019;1270;22453;-90
2023/09/11 22:42:55;;;;;;;41.20;27.30;;;;;;;17.71;100.00;98829.69;272987;1271;22308;-90
2023/09/11 22:48:57;;;;;;;38.40;24.70;;;;;;;17.65;100.00;98828.30;272842;1270;22296;-89
2023/09/11 22:54:59;;;;;;;36.90;25.30;;;;;;;17.57;100.00;98831.54;272961;1270;22220;-89
2023/09/11 23:01:01;;;;;;;40.50;26.40;;;;;;;17.52;100.00;98834.09;272693;1271;22299;-89
2023/09/11 23:07:03;;;;;;;35.00;25.20;;;;;;;17.46;100.00;98832.47;272738;1272;22332;-88
2023/09/11 23:13:05;;;;;;;33.50;24.40;;;;;;;17.39;100.00;98829.98;272938;1272;22808;-89
2023/09/11 23:19:06;;;;;;;35.10;25.10;;;;;;;17.31;100.00;98832.58;272731;1272;115136;-89
2023/09/11 23:25:08;;;;;;;31.60;23.70;;;;;;;17.21;100.00;98827.20;272812;1256;22238;-88
2023/09/11 23:31:10;;;;;;;30.60;23.90;;;;;;;17.12;100.00;98823.10;272742;1272;22199;-88
2023/09/11 23:37:12;;;;;;;31.80;21.60;;;;;;;17.08;100.00;98822.16;272931;1271;23104;-89
2023/09/11 23:43:14;;;;;;;29.10;22.60;;;;;;;16.99;100.00;98818.29;272692;1271;22353;-89
2023/09/11 23:49:15;;;;;;;30.00;22.10;;;;;;;16.92;100.00;98820.93;272912;1272;23910;-86
2023/09/11 23:55:17;;;;;;;25.40;19.60;;;;;;;16.84;100.00;98820.67;272922;1271;22207;-89
